Terminal Aerodrome Forecast
Issued by NWS

Home | Current Version | Previous Version | Text Only | Print | Product List | Glossary On
Versions: 1 2 3 4 5 6 7 8 9 10 11 12 13 14 15 16 17 18 19 20 21 22 23 24 25 26 27 28 29 30 31 32 33 34
501
FTUS41 KOKX 171729
TAFTEB
TAF
KTEB 171729Z 1718/1824 15007KT P6SM FEW030 OVC200
     FM172300 VRB05KT 1SM -SN FEW005 BKN015 OVC040
      TEMPO 1723/1801 3SM -RASN
     FM180100 VRB04KT 1/2SM SN OVC004
     FM180600 VRB03KT 2SM -SN OVC007
     FM180900 32005KT P6SM SCT007 BKN050
     FM181400 29010G18KT P6SM FEW035=

USA.gov is the U.S. government's official web portal to all federal, state and local government web resources and services.